Metar Report
Metar
METAR KPHG 231056Z AUTO 00000KT 10SM CLR 21/21 A3011 A02 2630
METAR KPHG 230956Z AUTO 00000KT 10SM SCT060 22/21 A3013 A02 2629
METAR KPHG 230856Z AUTO 04004KT 10SM CLR 22/19 A3011 A02 2628
METAR KPHG 230756Z AUTO 03004KT 10SM -DZ CLR 22/19 A3010 A02 2627
METAR KPHG 230656Z AUTO 06005KT 10SM CLR 22/19 A3008 A02 2626
METAR KPHG 230556Z AUTO 01004KT 10SM -DZ CLR 23/19 A3010 A02 2625
METAR KPHG 230456Z AUTO 12005KT 10SM CLR 23/18 A3007 A02 2624
METAR KPHG 230356Z AUTO 04005KT 10SM CLR 24/18 A3008 A02 2623
METAR KPHG 230256Z AUTO 06005KT 10SM CLR 24/18 A3004 A02 2622
METAR KPHG 230156Z AUTO 04004KT 10SM CLR 26/18 A3004 A02 2621
METAR KPHG 230056Z AUTO 07008KT 10SM CLR 30/17 A2999 A02 2620
METAR KPHG 222356Z AUTO 09009KT 10SM CLR 32/15 A2998 A02 2619
METAR KPHG 222256Z AUTO 10006KT 10SM CLR 32/14 A2999 A02 2618
METAR KPHG 222156Z AUTO 10013G17KT 10SM CLR 32/16 A3000 A02 2617
METAR KPHG 222056Z AUTO 08010G16KT 10SM CLR 32/16 A3000 A02 2616
METAR KPHG 221956Z AUTO 10009G15KT 10SM CLR 31/17 A3000 A02 2615
METAR KPHG 221856Z AUTO 11011G15KT 10SM CLR 30/18 A3001 A02 2614
METAR KPHG 221756Z AUTO 12012G16KT 10SM CLR 29/18 A3002 A02 2613
METAR KPHG 221656Z AUTO 10011G14KT 10SM CLR 28/18 A3004 A02 2612
METAR KPHG 221556Z AUTO 12011KT 10SM CLR 26/18 A3005 A02 2611
METAR KPHG 221456Z AUTO 11009KT 10SM CLR 24/19 A3006 A02 2610
METAR KPHG 221356Z AUTO 11009KT 10SM CLR 23/19 A3007 A02 2609
METAR KPHG 221256Z AUTO 05004KT 10SM CLR 21/21 A3006 A02 2608
METAR KPHG 221156Z AUTO 09007KT 10SM CLR 21/19 A3004 A02 2607
METAR KPHG 221056Z AUTO 10007KT 10SM CLR 22/19 A3002 A02 2606
METAR KPHG 220956Z AUTO 09009KT 10SM CLR 22/20 A3003 A02 2605
METAR KPHG 220856Z AUTO 08003KT 10SM SCT110 22/22 A3005 A02 2604
METAR KPHG 220756Z AUTO 10005KT 10SM CLR 22/22 A3006 A02 2603
METAR KPHG 220656Z AUTO 07007KT 10SM CLR 22/22 A3007 A02 P0004 2602
METAR KPHG 220556Z AUTO 06006KT 10SM VCTS CLR 24/19 A3005 A02 2601
METAR KPHG 220456Z AUTO 08006KT 10SM CLR 24/20 A3004 A02 2600
METAR KPHG 220356Z AUTO 07006KT 10SM CLR 25/20 A3004 A02 2599
METAR KPHG 220256Z AUTO 07006KT 10SM CLR 25/21 A3003 A02 2598
METAR KPHG 220156Z AUTO 07005KT 10SM CLR 26/21 A3001 A02 2597
METAR KPHG 220056Z AUTO 09005KT 10SM CLR 30/19 A3001 A02 2596
METAR KPHG 212356Z AUTO 10008KT 10SM CLR 32/17 A3001 A02 2595
METAR KPHG 212256Z AUTO 11008KT 10SM CLR 32/17 A3003 A02 2594
METAR KPHG 212156Z AUTO 11009KT 10SM CLR 33/18 A3004 A02 2593
METAR KPHG 212056Z AUTO 10007KT 10SM CLR 32/18 A3005 A02 2592
METAR KPHG 211956Z AUTO 10009KT 10SM CLR 32/17 A3006 A02 2591
METAR KPHG 211856Z AUTO 09008KT 10SM CLR 31/18 A3007 A02 2590
METAR KPHG 211756Z AUTO 09008KT 10SM CLR 29/18 A3009 A02 2589
METAR KPHG 211656Z AUTO 13008KT 10SM CLR 28/19 A3010 A02 2588
METAR KPHG 211556Z AUTO 13008KT 10SM CLR 27/19 A3011 A02 2587
METAR KPHG 211456Z AUTO 13006KT 10SM CLR 25/19 A3010 A02 2586
METAR KPHG 211356Z AUTO 12003KT 10SM CLR 23/19 A3010 A02 2585
METAR KPHG 211256Z AUTO 06003KT 10SM CLR 22/20 A3008 A02 2584
METAR KPHG 211156Z AUTO 05003KT 10SM CLR 20/20 A3006 A02 2583
METAR KPHG 211056Z AUTO 00000KT 10SM CLR 20/20 A3005 A02 2582
METAR KPHG 210956Z AUTO 00000KT 10SM CLR 21/21 A3004 A02 2581
METAR KPHG 210856Z AUTO 05008KT 10SM CLR 21/21 A3002 A02 2580
METAR KPHG 210756Z AUTO 05006KT 10SM CLR 21/21 A3005 A02 2579
METAR KPHG 210656Z AUTO 07004KT 10SM CLR 22/22 A3005 A02 2578
METAR KPHG 210556Z AUTO 11003KT 10SM CLR 22/22 A3005 A02 2577
METAR KPHG 210456Z AUTO 07004KT 10SM CLR 23/20 A3004 A02 2576
METAR KPHG 210356Z AUTO 07007KT 10SM CLR 24/20 A3004 A02 2575
METAR KPHG 210256Z AUTO 05005KT 10SM CLR 26/21 A2999 A02 2574
METAR KPHG 210156Z AUTO 05007KT 10SM CLR 28/22 A2996 A02 2573
METAR KPHG 210056Z AUTO 10004KT 10SM CLR 31/19 A2995 A02 2572
METAR KPHG 202356Z AUTO 10008KT 10SM CLR 33/18 A2995 A02 2571
METAR KPHG 202256Z AUTO 10009KT 10SM CLR 33/18 A2995 A02 2570
METAR KPHG 202156Z AUTO 07012G15KT 10SM CLR 33/19 A2994 A02 2569
METAR KPHG 202056Z AUTO 09009KT 10SM CLR 33/20 A2995 A02 2568
METAR KPHG 201956Z AUTO 09011KT 10SM CLR 32/21 A2996 A02 2567
METAR KPHG 201856Z AUTO 09012G16KT 10SM CLR 32/19 A2996 A02 2566
METAR KPHG 201756Z AUTO 09010KT 10SM CLR 32/19 A2995 A02 2565
METAR KPHG 201656Z AUTO 09009KT 10SM CLR 31/20 A2995 A02 2564
METAR KPHG 201556Z AUTO 10009KT 10SM CLR 29/20 A2993 A02 2563
METAR KPHG 201456Z AUTO 10006KT 10SM CLR 27/21 A2993 A02 2562
METAR KPHG 201356Z AUTO 10006KT 10SM CLR 26/22 A2994 A02 2561
METAR KPHG 201256Z AUTO 00000KT 10SM CLR 23/22 A2992 A02 2560
METAR KPHG 201156Z AUTO 05005KT 10SM CLR 22/22 A2991 A02 2559
METAR KPHG 201056Z AUTO 03005KT 10SM CLR 22/21 A2991 A02 2558
METAR KPHG 200956Z AUTO 03006KT 10SM CLR 22/22 A2991 A02 2557
METAR KPHG 200856Z AUTO 00000KT 10SM CLR 22/22 A2991 A02 2556
METAR KPHG 200756Z AUTO 00000KT 10SM CLR 23/23 A2991 A02 2555
METAR KPHG 200656Z AUTO 04004KT 10SM CLR 23/23 A2991 A02 2554
METAR KPHG 200556Z AUTO 03004KT 10SM CLR 24/23 A2991 A02 2553
METAR KPHG 200456Z AUTO 04004KT 10SM CLR 24/23 A2990 A02 2552
METAR KPHG 200356Z AUTO 08004KT 10SM CLR 24/23 A2991 A02 2551
METAR KPHG 200256Z AUTO 09004KT 10SM CLR 25/22 A2989 A02 2550
METAR KPHG 200156Z AUTO 00000KT 10SM CLR 28/23 A2987 A02 2549
METAR KPHG 200056Z AUTO 09005KT 10SM CLR 31/22 A2986 A02 2548
METAR KPHG 192356Z AUTO 09004KT 10SM CLR 32/22 A2986 A02 2547
METAR KPHG 192256Z AUTO 09006KT 10SM CLR 32/20 A2986 A02 2546
METAR KPHG 192156Z AUTO 09008KT 10SM CLR 32/21 A2988 A02 2545
METAR KPHG 192056Z AUTO 09008KT 10SM CLR 33/22 A2988 A02 2544
METAR KPHG 191956Z AUTO 00000KT 10SM SCT110 31/23 A2989 A02 2543
METAR KPHG 191856Z AUTO 00000KT 10SM CLR 31/22 A2989 A02 2542
METAR KPHG 191756Z AUTO 04003KT 10SM SCT095 26/21 A2992 A02 2541
METAR KPHG 191656Z AUTO 34004KT 3SM -TSRA SCT004 SCT013 BKN080 20/20 A2991 A02 P0034 2540
METAR KPHG 191556Z AUTO 30006KT 10SM VCTS SCT110 31/23 A2990 A02 2539
METAR KPHG 191456Z AUTO 00000KT 10SM CLR 28/22 A2991 A02 2538
METAR KPHG 191356Z AUTO 27004KT 10SM CLR 26/22 A2991 A02 2537
METAR KPHG 191256Z AUTO 00000KT 10SM CLR 23/23 A2991 A02 2536
METAR KPHG 191156Z AUTO 35004KT 7SM CLR 21/21 A2990 A02 2535
METAR KPHG 191056Z AUTO 00000KT 10SM CLR 21/21 A2989 A02 2534
METAR KPHG 190956Z AUTO 00000KT 10SM CLR 21/21 A2989 A02 2533
METAR KPHG 190856Z AUTO 18003KT 10SM CLR 21/21 A2990 A02 2532
METAR KPHG 190756Z AUTO 00000KT 10SM CLR 22/22 A2991 A02 2531
METAR KPHG 190656Z AUTO 00000KT 10SM CLR 22/22 A2993 A02 2530
METAR KPHG 190556Z AUTO 04007KT 10SM CLR 23/22 A2996 A02 2529
METAR KPHG 190456Z AUTO 11003KT 10SM CLR 23/23 A2994 A02 2528
METAR KPHG 190356Z AUTO 08004KT 10SM CLR 23/23 A2993 A02 2527
METAR KPHG 190256Z AUTO 12004KT 10SM CLR 24/21 A2990 A02 2526
METAR KPHG 190156Z AUTO 13005KT 10SM CLR 26/21 A2990 A02 2525
METAR KPHG 190056Z AUTO 12006KT 10SM CLR 28/21 A2991 A02 2524
METAR KPHG 182356Z AUTO 11009KT 10SM CLR 29/21 A2994 A02 2523
METAR KPHG 182256Z AUTO 15005KT 10SM SCT039 29/21 A2995 A02 2522
METAR KPHG 182156Z AUTO 09007KT 10SM SCT050 30/20 A2996 A02 2521
METAR KPHG 182056Z AUTO 14004KT 10SM OVC037 29/21 A2998 A02 2520
METAR KPHG 181956Z AUTO 00000KT 10SM SCT035 BKN100 29/19 A2999 A02 2519
METAR KPHG 181856Z AUTO 26003KT 10SM SCT100 28/19 A3000 A02 2518
METAR KPHG 181756Z AUTO 00000KT 10SM CLR 26/19 A2999 A02 2517
METAR KPHG 181656Z AUTO 16008KT 10SM CLR 23/20 A3000 A02 2516
METAR KPHG 181556Z AUTO 10007KT 10SM -RA SCT044 SCT055 BKN080 19/19 A2999 A02 P0026 2515
METAR KPHG 181456Z AUTO 28020G29KT 5SM TSRA BKN005 BKN011 BKN020 22/22 A3016 A02 P0004 2514
METAR KPHG 181356Z AUTO 02005KT 2 1/2SM TS BR OVC003 21/21 A3008 A02 2513
METAR KPHG 181256Z AUTO 05007KT 1SM BR OVC001 21/21 A3006 A02 2512
METAR KPHG 181156Z AUTO 05006KT 3/4SM BR OVC001 22/22 A3007 A02 2511
METAR KPHG 181056Z AUTO 06004KT 1SM BR OVC001 22/22 A3005 A02 2510